createdAt,value
2022-10-17T00:01:23.429Z,88.98
2022-10-17T00:03:49.796Z,89.18
2022-10-17T00:06:16.432Z,89.34
2022-10-17T00:08:43.996Z,89.65
2022-10-17T00:11:22.957Z,89.14
2022-10-17T00:13:51.065Z,89.10
2022-10-17T00:16:26.986Z,88.86
2022-10-17T00:18:53.490Z,88.48
2022-10-17T00:21:20.978Z,88.48
2022-10-17T00:23:48.080Z,88.60
2022-10-17T00:26:15.630Z,88.59
2022-10-17T00:28:42.670Z,88.74
2022-10-17T00:31:09.053Z,89.06
2022-10-17T00:33:36.226Z,89.06
2022-10-17T00:36:05.043Z,88.78
2022-10-17T00:38:31.563Z,88.93
2022-10-17T00:40:58.135Z,88.64
2022-10-17T00:43:24.845Z,88.65
2022-10-17T00:45:51.250Z,88.76
2022-10-17T00:48:21.256Z,88.79
2022-10-17T00:50:50.877Z,89.22
2022-10-17T00:53:18.623Z,89.16
2022-10-17T00:55:49.493Z,89.20
2022-10-17T00:58:17.026Z,89.17
2022-10-17T01:00:44.155Z,89.73
2022-10-17T01:03:10.693Z,89.36
2022-10-17T01:05:38.170Z,89.36
2022-10-17T01:08:04.814Z,89.51
2022-10-17T01:10:39.656Z,91.04
2022-10-17T01:13:13.771Z,91.01
2022-10-17T01:15:55.310Z,91.31
2022-10-17T01:18:49.160Z,91.22
2022-10-17T01:21:38.018Z,91.35
2022-10-17T01:24:26.170Z,91.28
2022-10-17T01:27:24.900Z,90.76
2022-10-17T01:30:28.049Z,91.27
2022-10-17T01:33:04.327Z,92.21
2022-10-17T01:35:49.271Z,91.89
2022-10-17T01:38:20.095Z,92.02
2022-10-17T01:40:52.709Z,91.62
2022-10-17T01:43:34.250Z,91.55
2022-10-17T01:46:24.847Z,91.36
2022-10-17T01:48:53.537Z,91.40
2022-10-17T01:51:30.853Z,91.53
2022-10-17T01:54:02.919Z,90.72
2022-10-17T01:56:32.726Z,90.81
2022-10-17T01:59:06.911Z,91.23
2022-10-17T02:01:35.872Z,91.25
2022-10-17T02:04:03.357Z,90.89
2022-10-17T02:06:29.661Z,91.63
2022-10-17T02:08:55.957Z,92.06
2022-10-17T02:11:24.700Z,92.02
2022-10-17T02:14:26.664Z,92.62
2022-10-17T02:17:04.990Z,92.29
2022-10-17T02:19:46.291Z,93.01
2022-10-17T02:22:27.433Z,92.85
2022-10-17T02:25:14.304Z,92.84
2022-10-17T02:27:55.118Z,91.82
2022-10-17T02:30:59.722Z,92.48
2022-10-17T02:33:34.465Z,92.08
2022-10-17T02:36:09.085Z,92.04
2022-10-17T02:38:35.641Z,92.60
2022-10-17T02:41:03.492Z,92.33
2022-10-17T02:43:30.242Z,92.56
2022-10-17T02:45:57.267Z,92.35
2022-10-17T02:48:41.911Z,92.59
2022-10-17T02:51:20.743Z,91.95
2022-10-17T02:53:55.530Z,91.96
2022-10-17T02:56:22.403Z,91.74
2022-10-17T02:58:54.472Z,91.90
2022-10-17T03:01:22.116Z,92.30
2022-10-17T03:03:48.576Z,92.51
2022-10-17T03:06:15.682Z,91.85
2022-10-17T03:08:42.217Z,92.16
2022-10-17T03:11:08.538Z,92.32
2022-10-17T03:13:37.580Z,91.78
2022-10-17T03:16:06.271Z,92.52
2022-10-17T03:18:32.820Z,92.81
2022-10-17T03:20:59.204Z,92.20
2022-10-17T03:23:25.523Z,92.48
2022-10-17T03:25:51.813Z,92.95
2022-10-17T03:28:18.207Z,92.29
2022-10-17T03:30:44.811Z,92.46
2022-10-17T03:33:11.187Z,92.64
2022-10-17T03:35:39.544Z,92.72
2022-10-17T03:38:05.928Z,92.84
2022-10-17T03:40:32.317Z,92.57
2022-10-17T03:42:58.654Z,92.35
2022-10-17T03:45:25.253Z,92.19
2022-10-17T03:47:51.686Z,92.46
2022-10-17T03:50:18.063Z,92.08
2022-10-17T03:52:48.218Z,92.31
2022-10-17T03:55:15.236Z,91.91
2022-10-17T03:57:43.418Z,91.92
2022-10-17T04:00:12.860Z,92.46
2022-10-17T04:02:39.535Z,91.97
2022-10-17T04:05:06.464Z,92.09
2022-10-17T04:07:32.775Z,92.79
2022-10-17T04:09:59.186Z,92.73
2022-10-17T04:12:25.543Z,91.66
2022-10-17T04:14:51.958Z,91.78
2022-10-17T04:17:18.428Z,91.66
2022-10-17T04:19:44.734Z,91.85
2022-10-17T04:22:11.110Z,91.91
2022-10-17T04:24:37.479Z,92.07
2022-10-17T04:27:03.936Z,92.36
2022-10-17T04:29:30.274Z,92.24
2022-10-17T04:31:56.571Z,92.29
2022-10-17T04:34:23.010Z,92.10
2022-10-17T04:36:49.322Z,92.26
2022-10-17T04:39:15.702Z,92.14
2022-10-17T04:41:42.131Z,92.35
2022-10-17T04:44:09.726Z,91.81
2022-10-17T04:46:36.104Z,91.74
2022-10-17T04:49:02.872Z,92.06
2022-10-17T04:51:29.179Z,92.28
2022-10-17T04:53:55.729Z,92.27
2022-10-17T04:56:24.968Z,92.12
2022-10-17T04:58:52.113Z,92.41
2022-10-17T05:01:21.221Z,92.54
2022-10-17T05:03:48.078Z,92.83
2022-10-17T05:06:23.199Z,92.06
2022-10-17T05:08:50.126Z,92.02
2022-10-17T05:11:17.996Z,92.35
2022-10-17T05:13:44.645Z,92.96
2022-10-17T05:16:11.021Z,92.79
2022-10-17T05:18:37.409Z,92.80
2022-10-17T05:21:04.206Z,92.69
2022-10-17T05:23:30.621Z,93.07
2022-10-17T05:25:57.050Z,93.49
2022-10-17T05:28:23.812Z,92.97
2022-10-17T05:30:50.223Z,93.24
2022-10-17T05:33:16.845Z,93.44
2022-10-17T05:35:43.297Z,93.18
2022-10-17T05:38:09.681Z,93.01
2022-10-17T05:40:36.219Z,92.61
2022-10-17T05:43:02.924Z,92.68
2022-10-17T05:45:29.297Z,93.39
2022-10-17T05:47:56.076Z,93.23
2022-10-17T05:50:22.371Z,93.59
2022-10-17T05:52:53.179Z,93.50
2022-10-17T05:55:19.518Z,93.41
2022-10-17T05:57:46.172Z,93.19
2022-10-17T06:00:13.754Z,93.13
2022-10-17T06:02:40.139Z,92.67
2022-10-17T06:05:06.633Z,92.37
2022-10-17T06:07:33.014Z,93.22
2022-10-17T06:09:59.306Z,92.34
2022-10-17T06:12:25.599Z,92.61
2022-10-17T06:14:51.961Z,92.60
2022-10-17T06:17:18.255Z,92.53
2022-10-17T06:19:45.005Z,92.17
2022-10-17T06:22:11.865Z,91.76
2022-10-17T06:24:38.187Z,92.01
2022-10-17T06:27:09.345Z,92.82
2022-10-17T06:29:38.502Z,92.78
2022-10-17T06:32:05.309Z,92.48
2022-10-17T06:34:31.687Z,92.52
2022-10-17T06:36:57.975Z,92.22
2022-10-17T06:39:24.416Z,91.95
2022-10-17T06:41:50.721Z,91.63
2022-10-17T06:44:17.106Z,89.86
2022-10-17T06:46:43.395Z,88.44
2022-10-17T06:49:10.480Z,87.68
2022-10-17T06:51:37.512Z,85.24
2022-10-17T06:54:03.973Z,81.88
2022-10-17T06:56:30.455Z,82.79
2022-10-17T06:58:56.804Z,81.79
2022-10-17T07:01:23.365Z,82.20
2022-10-17T07:03:49.911Z,80.42
2022-10-17T07:06:16.358Z,79.70
2022-10-17T07:08:43.602Z,80.39
2022-10-17T07:11:18.387Z,81.00
2022-10-17T07:13:45.352Z,80.27
2022-10-17T07:16:13.864Z,79.81
2022-10-17T07:18:41.120Z,80.10
2022-10-17T07:21:08.004Z,79.05
2022-10-17T07:23:35.674Z,79.16
2022-10-17T07:26:04.418Z,78.33
2022-10-17T07:28:30.721Z,74.81
2022-10-17T07:31:03.610Z,74.36
2022-10-17T07:33:29.929Z,75.19
2022-10-17T07:35:59.241Z,74.63
2022-10-17T07:38:26.172Z,75.18
2022-10-17T07:41:00.495Z,74.75
2022-10-17T07:43:27.915Z,74.75
2022-10-17T07:45:55.054Z,75.01
2022-10-17T07:48:23.180Z,73.32
2022-10-17T07:50:50.209Z,73.98
2022-10-17T07:53:17.753Z,72.59
2022-10-17T07:55:44.763Z,72.45
2022-10-17T07:58:11.149Z,73.09
2022-10-17T08:00:37.630Z,72.46
2022-10-17T08:03:04.921Z,71.30
2022-10-17T08:05:32.138Z,70.84
2022-10-17T08:07:58.883Z,71.37
2022-10-17T08:10:25.643Z,69.37
2022-10-17T08:12:51.977Z,69.27
2022-10-17T08:15:18.390Z,69.08
2022-10-17T08:17:44.708Z,69.46
2022-10-17T08:20:11.496Z,68.44
2022-10-17T08:22:38.113Z,67.78
2022-10-17T08:25:05.043Z,67.44
2022-10-17T08:27:33.319Z,67.60
2022-10-17T08:29:59.846Z,67.16
2022-10-17T08:32:28.444Z,67.74
2022-10-17T08:34:56.163Z,66.08
2022-10-17T08:37:23.412Z,65.18
2022-10-17T08:39:50.084Z,64.78
2022-10-17T08:43:04.322Z,62.47
2022-10-17T08:45:55.862Z,60.93
2022-10-17T08:48:25.712Z,61.45
2022-10-17T08:51:04.279Z,61.27
2022-10-17T08:53:37.808Z,61.87
2022-10-17T08:56:19.621Z,60.71
2022-10-17T08:58:51.554Z,59.60
2022-10-17T09:01:37.949Z,61.05
2022-10-17T09:04:23.034Z,61.65
2022-10-17T09:07:01.674Z,59.44
2022-10-17T09:09:33.946Z,60.42
2022-10-17T09:12:06.294Z,59.88
2022-10-17T09:14:51.536Z,57.95
2022-10-17T09:17:45.982Z,59.86
2022-10-17T09:20:17.963Z,58.93
2022-10-17T09:22:58.819Z,57.47
2022-10-17T09:25:27.411Z,56.00
2022-10-17T09:28:18.246Z,55.84
2022-10-17T09:30:47.733Z,57.31
2022-10-17T09:33:34.746Z,55.79
2022-10-17T09:36:10.796Z,55.51
2022-10-17T09:38:51.104Z,57.64
2022-10-17T09:41:44.074Z,57.22
2022-10-17T09:44:22.078Z,56.24
2022-10-17T09:47:07.187Z,55.87
2022-10-17T09:49:36.487Z,57.18
2022-10-17T09:52:04.999Z,56.57
2022-10-17T09:54:48.580Z,57.41
2022-10-17T09:57:17.930Z,57.04
2022-10-17T09:59:47.801Z,58.16
2022-10-17T10:02:20.372Z,58.34
2022-10-17T10:05:15.857Z,56.34
2022-10-17T10:07:46.034Z,55.45
2022-10-17T10:10:28.519Z,56.46
2022-10-17T10:13:15.977Z,56.68
2022-10-17T10:15:45.384Z,55.14
2022-10-17T10:21:09.531Z,55.91
2022-10-17T10:23:38.187Z,56.08
2022-10-17T10:26:21.216Z,56.50
2022-10-17T10:29:05.686Z,52.98
2022-10-17T10:31:38.758Z,54.91
2022-10-17T10:34:26.888Z,53.88
2022-10-17T10:36:59.131Z,54.90
2022-10-17T10:39:34.688Z,54.50
2022-10-17T10:42:03.337Z,54.32
2022-10-17T10:44:31.991Z,53.63
2022-10-17T10:47:15.584Z,54.05
2022-10-17T10:49:42.343Z,53.33
2022-10-17T10:52:15.392Z,53.08
2022-10-17T10:54:51.245Z,51.56
2022-10-17T10:57:23.944Z,51.99
2022-10-17T10:59:59.390Z,52.85
2022-10-17T11:02:37.418Z,52.72
2022-10-17T11:05:21.893Z,52.29
2022-10-17T11:07:59.874Z,50.61
2022-10-17T11:10:59.324Z,51.03
2022-10-17T11:13:31.584Z,50.98
2022-10-17T11:16:18.496Z,52.60
2022-10-17T11:18:50.700Z,50.48
2022-10-17T11:21:28.123Z,49.68
2022-10-17T11:24:00.487Z,50.17
2022-10-17T11:26:35.157Z,49.31
2022-10-17T11:29:05.543Z,49.13
2022-10-17T11:31:36.576Z,49.36
2022-10-17T11:34:25.509Z,50.07
2022-10-17T11:36:57.139Z,51.98
2022-10-17T11:39:34.718Z,51.25
2022-10-17T11:42:07.153Z,52.27
2022-10-17T11:44:39.176Z,51.62
2022-10-17T11:47:28.527Z,49.55
2022-10-17T11:53:05.101Z,51.20
2022-10-17T11:55:32.275Z,51.18
2022-10-17T11:58:32.997Z,50.68
2022-10-17T12:01:06.031Z,51.54
2022-10-17T12:03:44.500Z,50.05
2022-10-17T12:06:37.141Z,48.33
2022-10-17T12:09:23.531Z,48.58
2022-10-17T12:11:55.222Z,47.81
2022-10-17T12:14:47.516Z,47.55
2022-10-17T12:17:32.446Z,47.10
2022-10-17T12:20:21.591Z,47.17
2022-10-17T12:22:51.374Z,46.20
2022-10-17T12:25:31.481Z,45.52
2022-10-17T12:28:14.150Z,43.67
2022-10-17T12:30:56.935Z,45.09
2022-10-17T12:33:32.489Z,44.20
2022-10-17T12:36:17.471Z,43.46
2022-10-17T12:38:49.199Z,44.91
2022-10-17T12:41:36.959Z,45.01
2022-10-17T12:44:26.065Z,43.84
2022-10-17T12:47:04.402Z,44.14
2022-10-17T12:49:53.102Z,43.60
2022-10-17T12:52:46.734Z,43.47
2022-10-17T12:55:20.095Z,42.26
2022-10-17T12:58:06.913Z,42.08
2022-10-17T13:01:18.936Z,42.69
2022-10-17T13:03:48.640Z,41.92
2022-10-17T13:06:23.488Z,43.16
2022-10-17T13:09:16.505Z,42.74
2022-10-17T13:11:43.128Z,43.78
2022-10-17T13:14:13.131Z,43.17
2022-10-17T13:16:56.141Z,43.58
2022-10-17T13:19:29.573Z,41.36
2022-10-17T13:22:01.050Z,42.10
2022-10-17T13:24:33.062Z,41.89
2022-10-17T13:27:00.594Z,41.89
2022-10-17T13:29:28.428Z,40.69
2022-10-17T13:31:58.497Z,41.67
2022-10-17T13:34:25.939Z,40.92
2022-10-17T13:36:58.139Z,42.44
2022-10-17T13:39:44.740Z,42.08
2022-10-17T13:42:39.095Z,41.60
2022-10-17T13:45:18.251Z,41.58
2022-10-17T13:47:45.764Z,43.13
2022-10-17T13:50:43.086Z,42.61
2022-10-17T13:53:24.986Z,40.84
2022-10-17T13:56:22.911Z,41.14
2022-10-17T13:58:48.530Z,42.18
2022-10-17T14:01:15.732Z,42.48
2022-10-17T14:03:48.507Z,41.94
2022-10-17T14:06:18.767Z,41.98
2022-10-17T14:08:56.358Z,41.32
2022-10-17T14:11:27.271Z,42.88
2022-10-17T14:13:55.704Z,43.29
2022-10-17T14:16:23.894Z,43.69
2022-10-17T14:18:51.800Z,43.20
2022-10-17T14:21:43.880Z,42.89
2022-10-17T14:24:28.645Z,42.10
2022-10-17T14:26:57.603Z,42.51
2022-10-17T14:29:26.997Z,42.20
2022-10-17T14:32:02.606Z,42.47
2022-10-17T14:37:32.115Z,45.06
2022-10-17T14:40:01.026Z,43.35
2022-10-17T14:42:27.721Z,45.18
2022-10-17T14:44:56.897Z,44.87
2022-10-17T14:47:42.583Z,45.09
2022-10-17T14:50:12.398Z,45.32
2022-10-17T14:52:39.127Z,46.41
2022-10-17T14:55:26.674Z,46.22
2022-10-17T14:57:53.187Z,46.50
2022-10-17T15:00:21.031Z,46.03
2022-10-17T15:02:48.934Z,46.23
2022-10-17T15:05:16.281Z,46.56
2022-10-17T15:07:43.215Z,47.18
2022-10-17T15:10:36.527Z,46.89
2022-10-17T15:13:26.544Z,47.71
2022-10-17T15:15:50.428Z,46.33
2022-10-17T15:18:16.849Z,46.85
2022-10-17T15:20:43.148Z,47.91
2022-10-17T15:23:09.786Z,48.06
2022-10-17T15:25:36.504Z,48.52
2022-10-17T15:28:02.830Z,48.38
2022-10-17T15:30:32.388Z,47.88
2022-10-17T15:32:59.780Z,48.63
2022-10-17T15:35:27.878Z,47.73
2022-10-17T15:37:55.089Z,47.47
2022-10-17T15:40:24.473Z,47.31
2022-10-17T15:42:51.900Z,46.88
2022-10-17T15:45:19.963Z,47.81
2022-10-17T15:47:52.174Z,47.91
2022-10-17T15:50:18.860Z,49.38
2022-10-17T15:52:45.163Z,50.08
2022-10-17T15:55:11.451Z,50.50
2022-10-17T15:57:42.478Z,50.94
2022-10-17T16:00:21.124Z,51.18
2022-10-17T16:02:48.234Z,51.69
2022-10-17T16:05:20.566Z,52.19
2022-10-17T16:07:46.906Z,52.70
2022-10-17T16:10:14.742Z,53.07
2022-10-17T16:12:41.342Z,52.04
2022-10-17T16:15:15.484Z,52.62
2022-10-17T16:17:41.920Z,52.78
2022-10-17T16:20:09.567Z,53.67
2022-10-17T16:22:35.937Z,53.90
2022-10-17T16:25:05.083Z,54.81
2022-10-17T16:27:31.513Z,55.00
2022-10-17T16:29:58.184Z,53.79
2022-10-17T16:32:24.632Z,54.53
2022-10-17T16:34:51.050Z,55.25
2022-10-17T16:37:17.386Z,55.53
2022-10-17T16:39:44.071Z,54.78
2022-10-17T16:42:10.398Z,54.96
2022-10-17T16:44:36.980Z,56.02
2022-10-17T16:47:03.337Z,56.05
2022-10-17T16:49:29.619Z,56.37
2022-10-17T16:51:56.669Z,57.00
2022-10-17T16:54:23.083Z,57.60
2022-10-17T16:56:49.372Z,57.94
2022-10-17T16:59:15.688Z,57.37
2022-10-17T17:01:42.162Z,57.87
2022-10-17T17:04:08.497Z,58.47
2022-10-17T17:06:35.210Z,58.46
2022-10-17T17:09:01.623Z,58.84
2022-10-17T17:11:28.639Z,59.26
2022-10-17T17:13:57.066Z,59.63
2022-10-17T17:16:25.248Z,59.92
2022-10-17T17:19:00.638Z,60.55
2022-10-17T17:21:27.334Z,60.80
2022-10-17T17:23:55.054Z,61.04
2022-10-17T17:26:22.927Z,61.25
2022-10-17T17:28:50.389Z,61.57
2022-10-17T17:31:20.006Z,61.66
2022-10-17T17:33:47.212Z,62.42
2022-10-17T17:36:20.172Z,62.81
2022-10-17T17:38:47.971Z,64.23
2022-10-17T17:41:17.191Z,63.96
2022-10-17T17:43:47.094Z,65.16
2022-10-17T17:46:15.461Z,65.44
2022-10-17T17:48:43.136Z,66.29
2022-10-17T17:51:12.630Z,65.83
2022-10-17T17:53:39.964Z,66.63
2022-10-17T17:56:11.996Z,67.47
2022-10-17T17:58:41.041Z,67.09
2022-10-17T18:01:18.156Z,67.95
2022-10-17T18:03:45.291Z,68.33
2022-10-17T18:06:15.436Z,68.60
2022-10-17T18:08:45.488Z,69.16
2022-10-17T18:11:12.406Z,69.38
2022-10-17T18:13:38.732Z,69.59
2022-10-17T18:16:06.385Z,69.76
2022-10-17T18:18:33.100Z,70.35
2022-10-17T18:21:01.429Z,70.42
2022-10-17T18:23:27.727Z,71.55
2022-10-17T18:26:01.170Z,72.11
2022-10-17T18:28:27.791Z,72.11
2022-10-17T18:30:54.616Z,72.09
2022-10-17T18:33:21.507Z,72.29
2022-10-17T18:35:47.805Z,73.18
2022-10-17T18:38:14.171Z,72.99
2022-10-17T18:40:40.671Z,73.31
2022-10-17T18:43:07.617Z,73.19
2022-10-17T18:45:33.936Z,73.35
2022-10-17T18:48:00.312Z,73.98
2022-10-17T18:50:27.434Z,74.40
2022-10-17T18:52:53.926Z,74.29
2022-10-17T18:55:20.305Z,74.53
2022-10-17T18:57:48.071Z,74.66
2022-10-17T19:00:15.310Z,75.08
2022-10-17T19:02:41.706Z,75.18
2022-10-17T19:05:09.006Z,75.48
2022-10-17T19:07:35.546Z,76.47
2022-10-17T19:10:01.843Z,76.81
2022-10-17T19:12:28.981Z,76.39
2022-10-17T19:14:55.480Z,76.68
2022-10-17T19:17:21.867Z,76.89
2022-10-17T19:19:48.195Z,77.21
2022-10-17T19:22:14.608Z,77.67
2022-10-17T19:24:41.064Z,77.44
2022-10-17T19:27:07.713Z,77.62
2022-10-17T19:29:34.199Z,77.58
2022-10-17T19:32:01.017Z,78.01
2022-10-17T19:37:18.102Z,78.08
2022-10-17T19:39:44.515Z,78.52
2022-10-17T19:42:10.870Z,78.63
2022-10-17T19:44:37.388Z,78.15
2022-10-17T19:47:03.883Z,78.55
2022-10-17T19:49:30.253Z,78.57
2022-10-17T19:51:56.552Z,78.62
2022-10-17T19:54:22.927Z,78.71
2022-10-17T19:56:49.318Z,79.19
2022-10-17T19:59:16.971Z,79.12
2022-10-17T20:01:43.937Z,79.15
2022-10-17T20:04:11.531Z,79.77
2022-10-17T20:06:39.196Z,79.88
2022-10-17T20:09:07.383Z,79.93
2022-10-17T20:11:35.160Z,80.18
2022-10-17T20:14:01.613Z,80.51
2022-10-17T20:16:31.325Z,80.48
2022-10-17T20:19:04.011Z,79.75
2022-10-17T20:21:30.737Z,79.86
2022-10-17T20:23:59.238Z,79.98
2022-10-17T20:26:37.495Z,79.84
2022-10-17T20:29:08.395Z,80.02
2022-10-17T20:31:34.883Z,79.95
2022-10-17T20:34:01.175Z,80.06
2022-10-17T20:36:27.462Z,80.58
2022-10-17T20:38:58.015Z,80.26
2022-10-17T20:41:26.021Z,80.68
2022-10-17T20:43:54.181Z,80.39
2022-10-17T20:46:35.894Z,80.46
2022-10-17T20:49:05.117Z,80.98
2022-10-17T20:51:31.749Z,80.65
2022-10-17T20:53:58.142Z,81.07
2022-10-17T20:56:28.267Z,81.12
2022-10-17T20:58:58.038Z,81.15
2022-10-17T21:01:26.089Z,80.85
2022-10-17T21:03:52.783Z,81.55
2022-10-17T21:06:21.793Z,81.69
2022-10-17T21:08:48.765Z,81.82
2022-10-17T21:11:23.568Z,82.20
2022-10-17T21:13:58.783Z,82.10
2022-10-17T21:16:26.107Z,82.10
2022-10-17T21:18:53.005Z,82.25
2022-10-17T21:21:25.021Z,81.67
2022-10-17T21:23:51.379Z,81.85
2022-10-17T21:26:18.353Z,82.69
2022-10-17T21:28:46.542Z,82.77
2022-10-17T21:31:18.538Z,82.46
2022-10-17T21:33:49.952Z,82.78
2022-10-17T21:36:17.593Z,82.56
2022-10-17T21:38:45.706Z,82.59
2022-10-17T21:41:13.277Z,82.95
2022-10-17T21:43:40.283Z,83.45
2022-10-17T21:46:12.526Z,83.44
2022-10-17T21:48:39.492Z,83.64
2022-10-17T21:51:08.896Z,83.49
2022-10-17T21:53:36.783Z,84.45
2022-10-17T21:56:05.790Z,84.00
2022-10-17T21:58:33.134Z,83.91
2022-10-17T22:01:08.350Z,83.93
2022-10-17T22:03:42.702Z,83.30
2022-10-17T22:09:00.634Z,83.60
2022-10-17T22:11:30.836Z,83.52
2022-10-17T22:13:59.963Z,83.94
2022-10-17T22:16:26.746Z,83.73
2022-10-17T22:19:00.521Z,83.71
2022-10-17T22:21:29.719Z,83.88
2022-10-17T22:23:59.383Z,83.67
2022-10-17T22:26:27.947Z,83.90
2022-10-17T22:28:54.510Z,83.64
2022-10-17T22:31:21.615Z,84.15
2022-10-17T22:33:48.108Z,84.45
2022-10-17T22:36:14.444Z,84.07
2022-10-17T22:38:40.901Z,84.43
2022-10-17T22:41:08.124Z,84.26
2022-10-17T22:43:34.832Z,84.21
2022-10-17T22:46:03.615Z,84.46
2022-10-17T22:48:30.385Z,84.38
2022-10-17T22:50:58.691Z,84.17
2022-10-17T22:53:25.923Z,84.50
2022-10-17T22:56:09.744Z,84.58
2022-10-17T22:58:36.414Z,84.74
2022-10-17T23:01:04.669Z,84.61
2022-10-17T23:03:31.665Z,84.46
2022-10-17T23:05:58.441Z,84.77
2022-10-17T23:08:25.433Z,84.98
2022-10-17T23:10:52.072Z,84.34
2022-10-17T23:13:18.476Z,84.69
2022-10-17T23:15:44.804Z,85.00
2022-10-17T23:18:11.361Z,85.03
2022-10-17T23:20:38.027Z,85.02
2022-10-17T23:23:05.314Z,84.90
2022-10-17T23:25:34.553Z,84.62
2022-10-17T23:28:01.739Z,84.50
2022-10-17T23:30:28.462Z,84.88
2022-10-17T23:32:54.822Z,84.62
2022-10-17T23:35:21.448Z,84.94
2022-10-17T23:37:47.825Z,84.84
2022-10-17T23:40:14.304Z,84.71
2022-10-17T23:42:40.678Z,85.45
2022-10-17T23:45:07.872Z,85.41
2022-10-17T23:47:34.387Z,85.61
2022-10-17T23:50:00.799Z,85.82
2022-10-17T23:52:27.131Z,86.02
2022-10-17T23:54:53.804Z,85.50
2022-10-17T23:57:20.265Z,85.47
2022-10-17T23:59:46.561Z,85.89
